createdAt,value
2019-03-16T00:00:16.669Z,17.82
2019-03-16T00:02:25.847Z,17.05
2019-03-16T00:04:33.542Z,17.55
2019-03-16T00:06:41.236Z,17.62
2019-03-16T00:08:48.983Z,16.60
2019-03-16T00:10:56.661Z,17.02
2019-03-16T00:13:04.236Z,17.17
2019-03-16T00:15:11.875Z,17.67
2019-03-16T00:17:23.337Z,15.58
2019-03-16T00:19:28.855Z,15.20
2019-03-16T00:21:36.424Z,14.87
2019-03-16T00:23:44.125Z,10.35
2019-03-16T00:25:51.702Z,8.05
2019-03-16T00:27:59.436Z,9.03
2019-03-16T00:30:11.708Z,5.50
2019-03-16T00:32:19.520Z,6.15
2019-03-16T00:34:27.176Z,5.87
2019-03-16T00:36:34.858Z,3.85
2019-03-16T00:38:42.511Z,1.92
2019-03-16T00:40:50.075Z,2.40
2019-03-16T00:42:57.792Z,1.52
2019-03-16T00:45:09.916Z,1.22
2019-03-16T00:47:17.482Z,1.40
2019-03-16T00:49:25.124Z,1.77
2019-03-16T00:51:32.744Z,2.00
2019-03-16T00:53:40.611Z,1.77
2019-03-16T00:55:48.340Z,2.25
2019-03-16T00:57:56.076Z,2.05
2019-03-16T01:00:12.296Z,2.95
2019-03-16T01:02:27.071Z,1.80
2019-03-16T01:04:30.477Z,2.77
2019-03-16T01:06:38.136Z,2.90
2019-03-16T01:08:46.034Z,1.60
2019-03-16T01:10:53.696Z,3.17
2019-03-16T01:13:01.529Z,2.02
2019-03-16T01:15:13.853Z,3.52
2019-03-16T01:17:21.469Z,2.33
2019-03-16T01:19:30.001Z,2.05
2019-03-16T01:21:37.589Z,1.70
2019-03-16T01:23:45.150Z,3.10
2019-03-16T01:25:53.083Z,2.10
2019-03-16T01:28:00.740Z,2.35
2019-03-16T01:30:15.098Z,2.83
2019-03-16T01:32:22.728Z,1.80
2019-03-16T01:34:30.447Z,2.17
2019-03-16T01:36:38.077Z,3.70
2019-03-16T01:38:45.801Z,3.30
2019-03-16T01:40:53.458Z,4.35
2019-03-16T01:43:01.137Z,4.83
2019-03-16T01:45:10.769Z,5.37
2019-03-16T01:47:18.420Z,5.60
2019-03-16T01:49:25.981Z,6.25
2019-03-16T01:51:33.709Z,4.45
2019-03-16T01:53:41.471Z,7.40
2019-03-16T01:55:49.204Z,6.22
2019-03-16T01:57:56.838Z,6.83
2019-03-16T02:00:08.412Z,6.00
2019-03-16T02:02:16.029Z,4.75
2019-03-16T02:04:24.657Z,3.12
2019-03-16T02:06:32.345Z,3.58
2019-03-16T02:08:39.901Z,4.33
2019-03-16T02:10:47.696Z,4.80
2019-03-16T02:12:55.383Z,3.98
2019-03-16T02:15:02.945Z,3.55
2019-03-16T02:17:10.668Z,1.70
2019-03-16T02:19:19.573Z,1.65
2019-03-16T02:21:27.145Z,2.75
2019-03-16T02:23:35.947Z,2.20
2019-03-16T02:25:43.655Z,2.87
2019-03-16T02:27:52.518Z,1.72
2019-03-16T02:30:00.211Z,3.25
2019-03-16T02:32:08.418Z,2.42
2019-03-16T02:34:16.266Z,2.72
2019-03-16T02:36:24.173Z,2.17
2019-03-16T02:38:31.850Z,2.90
2019-03-16T02:40:39.450Z,2.67
2019-03-16T02:42:47.077Z,2.00
2019-03-16T02:44:54.727Z,1.72
2019-03-16T02:47:02.287Z,2.60
2019-03-16T02:49:11.141Z,2.40
2019-03-16T02:51:19.843Z,2.15
2019-03-16T02:53:27.363Z,1.80
2019-03-16T02:55:35.092Z,1.70
2019-03-16T02:57:42.705Z,2.00
2019-03-16T02:59:50.447Z,1.65
2019-03-16T03:01:58.104Z,1.20
2019-03-16T03:04:06.031Z,1.30
2019-03-16T03:06:13.683Z,2.33
2019-03-16T03:08:21.317Z,1.98
2019-03-16T03:10:29.059Z,1.82
2019-03-16T03:12:36.652Z,1.47
2019-03-16T03:14:44.208Z,1.40
2019-03-16T03:16:51.893Z,1.85
2019-03-16T03:19:00.813Z,1.67
2019-03-16T03:21:08.575Z,1.75
2019-03-16T03:23:16.158Z,1.32
2019-03-16T03:25:25.075Z,2.35
2019-03-16T03:27:32.850Z,2.22
2019-03-16T03:29:40.442Z,1.80
2019-03-16T03:31:48.070Z,2.17
2019-03-16T03:34:01.133Z,2.05
2019-03-16T03:36:05.052Z,1.57
2019-03-16T03:38:12.884Z,1.95
2019-03-16T03:40:20.555Z,2.00
2019-03-16T03:42:28.203Z,1.98
2019-03-16T03:44:35.798Z,2.40
2019-03-16T03:46:43.534Z,2.30
2019-03-16T03:48:52.605Z,1.82
2019-03-16T03:51:00.208Z,1.65
2019-03-16T03:53:07.925Z,1.85
2019-03-16T03:55:17.049Z,2.08
2019-03-16T03:57:24.708Z,2.30
2019-03-16T03:59:32.586Z,1.57
2019-03-16T04:01:40.341Z,1.75
2019-03-16T04:03:48.250Z,1.87
2019-03-16T04:05:55.880Z,1.45
2019-03-16T04:08:04.412Z,1.25
2019-03-16T04:10:12.917Z,1.37
2019-03-16T04:12:20.542Z,1.60
2019-03-16T04:14:28.289Z,1.60
2019-03-16T04:16:35.890Z,1.70
2019-03-16T04:18:43.858Z,1.47
2019-03-16T04:20:51.802Z,1.50
2019-03-16T04:22:59.484Z,1.67
2019-03-16T04:25:08.279Z,2.40
2019-03-16T04:27:16.838Z,2.10
2019-03-16T04:29:24.806Z,2.17
2019-03-16T04:31:32.598Z,1.75
2019-03-16T04:33:40.206Z,1.62
2019-03-16T04:35:47.898Z,2.00
2019-03-16T04:37:55.459Z,1.80
2019-03-16T04:40:03.529Z,1.35
2019-03-16T04:42:11.185Z,1.87
2019-03-16T04:44:18.820Z,1.52
2019-03-16T04:46:26.567Z,2.35
2019-03-16T04:48:34.132Z,2.00
2019-03-16T04:50:41.702Z,2.10
2019-03-16T04:52:51.122Z,2.22
2019-03-16T04:54:58.898Z,2.17
2019-03-16T04:57:07.742Z,1.65
2019-03-16T04:59:15.656Z,1.98
2019-03-16T05:01:23.268Z,2.47
2019-03-16T05:03:30.843Z,2.12
2019-03-16T05:05:38.533Z,2.10
2019-03-16T05:07:46.189Z,1.37
2019-03-16T05:09:54.721Z,1.77
2019-03-16T05:12:02.304Z,2.02
2019-03-16T05:14:09.865Z,1.60
2019-03-16T05:16:17.462Z,1.42
2019-03-16T05:18:26.381Z,2.42
2019-03-16T05:20:34.117Z,2.20
2019-03-16T05:22:41.772Z,1.32
2019-03-16T05:24:49.692Z,1.15
2019-03-16T05:26:57.495Z,2.08
2019-03-16T05:29:05.060Z,1.70
2019-03-16T05:31:12.832Z,1.98
2019-03-16T05:33:20.428Z,2.72
2019-03-16T05:35:28.027Z,1.30
2019-03-16T05:37:36.756Z,1.67
2019-03-16T05:39:44.386Z,1.80
2019-03-16T05:41:52.016Z,2.72
2019-03-16T05:43:59.942Z,1.30
2019-03-16T05:46:08.748Z,1.80
2019-03-16T05:48:16.307Z,1.98
2019-03-16T05:50:23.982Z,1.72
2019-03-16T05:52:31.638Z,1.70
2019-03-16T05:54:39.233Z,2.20
2019-03-16T05:56:46.883Z,1.67
2019-03-16T05:58:55.831Z,1.87
2019-03-16T06:01:03.391Z,2.87
2019-03-16T06:03:11.039Z,2.33
2019-03-16T06:05:18.605Z,1.98
2019-03-16T06:07:26.166Z,2.35
2019-03-16T06:09:34.028Z,2.02
2019-03-16T06:11:41.644Z,2.02
2019-03-16T06:13:49.266Z,2.08
2019-03-16T06:15:56.957Z,2.35
2019-03-16T06:18:04.615Z,1.85
2019-03-16T06:20:14.085Z,1.55
2019-03-16T06:22:23.511Z,1.90
2019-03-16T06:24:32.029Z,1.60
2019-03-16T06:26:39.751Z,1.70
2019-03-16T06:28:47.646Z,2.20
2019-03-16T06:30:55.286Z,2.55
2019-03-16T06:33:02.813Z,1.92
2019-03-16T06:35:23.400Z,2.62
2019-03-16T06:37:20.011Z,2.05
2019-03-16T06:39:27.570Z,2.05
2019-03-16T06:41:35.227Z,2.90
2019-03-16T06:43:42.956Z,2.42
2019-03-16T06:45:50.623Z,2.45
2019-03-16T06:47:58.235Z,2.65
2019-03-16T06:50:16.306Z,2.70
2019-03-16T06:52:23.971Z,2.75
2019-03-16T06:54:31.645Z,2.42
2019-03-16T06:56:39.207Z,2.20
2019-03-16T06:58:46.976Z,2.37
2019-03-16T07:00:54.623Z,2.22
2019-03-16T07:03:02.184Z,2.15
2019-03-16T07:05:12.840Z,2.67
2019-03-16T07:07:21.699Z,2.02
2019-03-16T07:09:29.266Z,2.52
2019-03-16T07:11:37.067Z,2.75
2019-03-16T07:13:45.780Z,2.72
2019-03-16T07:15:53.437Z,2.52
2019-03-16T07:18:00.997Z,2.45
2019-03-16T07:20:12.049Z,2.37
2019-03-16T07:22:20.974Z,1.90
2019-03-16T07:24:28.805Z,2.40
2019-03-16T07:26:37.537Z,2.50
2019-03-16T07:28:45.616Z,2.15
2019-03-16T07:30:54.357Z,2.85
2019-03-16T07:33:01.994Z,1.87
2019-03-16T07:35:10.175Z,2.20
2019-03-16T07:37:17.744Z,2.80
2019-03-16T07:39:25.353Z,2.15
2019-03-16T07:41:32.892Z,2.70
2019-03-16T07:43:40.557Z,2.58
2019-03-16T07:45:48.659Z,2.30
2019-03-16T07:47:56.220Z,2.83
2019-03-16T07:50:05.132Z,2.87
2019-03-16T07:52:12.728Z,2.60
2019-03-16T07:54:20.458Z,2.27
2019-03-16T07:56:29.149Z,2.92
2019-03-16T07:58:36.740Z,2.75
2019-03-16T08:00:45.666Z,2.65
2019-03-16T08:02:53.230Z,2.98
2019-03-16T08:05:00.874Z,3.02
2019-03-16T08:07:08.562Z,3.00
2019-03-16T08:09:16.167Z,4.08
2019-03-16T08:11:24.109Z,2.25
2019-03-16T08:13:31.733Z,4.12
2019-03-16T08:15:39.666Z,3.60
2019-03-16T08:17:47.406Z,2.92
2019-03-16T08:19:54.978Z,3.05
2019-03-16T08:22:02.636Z,3.35
2019-03-16T08:24:10.224Z,3.37
2019-03-16T08:26:17.967Z,2.40
2019-03-16T08:28:25.599Z,4.12
2019-03-16T08:30:33.268Z,2.00
2019-03-16T08:32:40.820Z,2.52
2019-03-16T08:34:48.486Z,3.95
2019-03-16T08:36:56.170Z,2.90
2019-03-16T08:39:04.771Z,2.58
2019-03-16T08:41:12.641Z,3.52
2019-03-16T08:43:20.388Z,3.30
2019-03-16T08:45:28.013Z,3.55
2019-03-16T08:47:36.528Z,4.05
2019-03-16T08:49:44.181Z,3.08
2019-03-16T08:51:51.842Z,3.58
2019-03-16T08:53:59.405Z,3.72
2019-03-16T08:56:07.223Z,2.92
2019-03-16T08:58:15.011Z,4.50
2019-03-16T09:00:22.646Z,3.77
2019-03-16T09:02:30.303Z,3.05
2019-03-16T09:04:38.308Z,3.42
2019-03-16T09:06:45.988Z,3.30
2019-03-16T09:08:53.577Z,4.00
2019-03-16T09:11:01.217Z,3.52
2019-03-16T09:13:08.786Z,3.87
2019-03-16T09:15:17.359Z,2.75
2019-03-16T09:17:25.367Z,3.40
2019-03-16T09:19:33.096Z,3.77
2019-03-16T09:21:40.685Z,3.42
2019-03-16T09:23:48.352Z,3.67
2019-03-16T09:25:56.088Z,3.77
2019-03-16T09:28:03.677Z,2.98
2019-03-16T09:30:16.748Z,4.37
2019-03-16T09:32:24.303Z,3.17
2019-03-16T09:34:31.904Z,3.35
2019-03-16T09:36:39.761Z,3.80
2019-03-16T09:38:47.661Z,3.25
2019-03-16T09:40:55.323Z,3.52
2019-03-16T09:43:03.005Z,2.85
2019-03-16T09:45:13.421Z,3.25
2019-03-16T09:47:21.002Z,3.52
2019-03-16T09:49:28.638Z,3.47
2019-03-16T09:51:36.197Z,3.17
2019-03-16T09:53:43.930Z,3.52
2019-03-16T09:55:51.541Z,3.87
2019-03-16T09:57:59.140Z,3.67
2019-03-16T10:00:15.808Z,3.85
2019-03-16T10:02:23.436Z,2.65
2019-03-16T10:04:31.063Z,3.85
2019-03-16T10:06:38.668Z,3.15
2019-03-16T10:08:46.297Z,3.72
2019-03-16T10:10:53.961Z,3.58
2019-03-16T10:13:01.649Z,3.52
2019-03-16T10:15:11.797Z,3.77
2019-03-16T10:17:19.394Z,2.80
2019-03-16T10:19:27.347Z,4.55
2019-03-16T10:21:35.266Z,4.25
2019-03-16T10:23:42.833Z,4.00
2019-03-16T10:25:50.522Z,3.27
2019-03-16T10:27:58.398Z,3.72
2019-03-16T10:30:16.007Z,3.77
2019-03-16T10:32:24.000Z,4.28
2019-03-16T10:34:31.624Z,4.05
2019-03-16T10:36:39.297Z,3.98
2019-03-16T10:38:46.885Z,3.75
2019-03-16T10:40:54.672Z,2.58
2019-03-16T10:43:02.460Z,3.58
2019-03-16T10:45:11.957Z,4.25
2019-03-16T10:47:19.790Z,3.70
2019-03-16T10:49:27.262Z,4.10
2019-03-16T10:51:35.019Z,4.40
2019-03-16T10:53:42.722Z,3.95
2019-03-16T10:55:50.366Z,2.67
2019-03-16T10:57:59.247Z,3.22
2019-03-16T11:00:14.066Z,3.58
2019-03-16T11:02:21.710Z,2.83
2019-03-16T11:04:29.385Z,2.27
2019-03-16T11:06:37.108Z,6.78
2019-03-16T11:08:44.683Z,4.15
2019-03-16T11:10:52.375Z,3.95
2019-03-16T11:13:00.032Z,4.20
2019-03-16T11:15:12.439Z,3.77
2019-03-16T11:17:20.029Z,3.05
2019-03-16T11:19:28.620Z,3.92
2019-03-16T11:21:36.182Z,4.10
2019-03-16T11:23:43.950Z,5.15
2019-03-16T11:25:51.593Z,4.75
2019-03-16T11:27:59.406Z,5.60
2019-03-16T11:30:15.929Z,5.53
2019-03-16T11:32:23.510Z,4.42
2019-03-16T11:34:31.132Z,3.50
2019-03-16T11:36:38.959Z,4.25
2019-03-16T11:38:46.897Z,3.98
2019-03-16T11:40:54.466Z,4.47
2019-03-16T11:43:02.067Z,6.22
2019-03-16T11:45:11.792Z,5.25
2019-03-16T11:47:20.418Z,7.60
2019-03-16T11:49:28.007Z,5.22
2019-03-16T11:51:35.574Z,7.97
2019-03-16T11:53:43.241Z,6.35
2019-03-16T11:55:50.941Z,4.50
2019-03-16T11:57:58.658Z,3.00
2019-03-16T12:00:13.287Z,5.03
2019-03-16T12:02:21.009Z,5.03
2019-03-16T12:04:28.749Z,4.67
2019-03-16T12:06:37.523Z,4.47
2019-03-16T12:08:45.167Z,5.12
2019-03-16T12:10:52.939Z,4.25
2019-03-16T12:13:00.801Z,3.87
2019-03-16T12:15:11.194Z,4.55
2019-03-16T12:17:18.760Z,4.03
2019-03-16T12:19:26.595Z,4.72
2019-03-16T12:21:34.254Z,3.95
2019-03-16T12:23:42.027Z,3.30
2019-03-16T12:25:49.662Z,4.10
2019-03-16T12:27:57.362Z,4.62
2019-03-16T12:30:15.005Z,6.60
2019-03-16T12:32:22.579Z,7.67
2019-03-16T12:34:30.196Z,4.95
2019-03-16T12:36:37.770Z,6.25
2019-03-16T12:38:48.047Z,3.83
2019-03-16T12:40:55.692Z,5.42
2019-03-16T12:43:03.430Z,5.53
2019-03-16T12:45:21.311Z,4.85
2019-03-16T12:47:31.258Z,3.52
2019-03-16T12:49:38.343Z,4.97
2019-03-16T12:51:45.946Z,4.12
2019-03-16T12:53:53.547Z,4.20
2019-03-16T12:56:02.391Z,3.77
2019-03-16T12:58:10.270Z,3.50
2019-03-16T13:00:20.453Z,3.77
2019-03-16T13:02:28.098Z,4.70
2019-03-16T13:04:35.736Z,3.67
2019-03-16T13:06:43.397Z,4.08
2019-03-16T13:08:50.968Z,4.75
2019-03-16T13:10:58.640Z,4.30
2019-03-16T13:13:06.301Z,3.12
2019-03-16T13:15:14.511Z,3.22
2019-03-16T13:17:22.222Z,3.58
2019-03-16T13:19:29.909Z,4.58
2019-03-16T13:21:38.248Z,4.40
2019-03-16T13:23:45.908Z,3.40
2019-03-16T13:25:53.572Z,3.45
2019-03-16T13:28:01.237Z,2.98
2019-03-16T13:30:17.576Z,3.17
2019-03-16T13:32:25.231Z,3.83
2019-03-16T13:34:32.894Z,4.65
2019-03-16T13:36:40.592Z,3.40
2019-03-16T13:38:48.406Z,3.98
2019-03-16T13:40:56.100Z,3.00
2019-03-16T13:43:03.792Z,2.58
2019-03-16T13:45:11.813Z,2.62
2019-03-16T13:47:19.478Z,3.25
2019-03-16T13:49:27.140Z,3.75
2019-03-16T13:51:34.818Z,3.85
2019-03-16T13:53:42.368Z,2.33
2019-03-16T13:55:50.030Z,3.62
2019-03-16T13:57:57.735Z,5.08
2019-03-16T14:00:13.886Z,3.17
2019-03-16T14:02:21.669Z,6.00
2019-03-16T14:04:29.351Z,3.42
2019-03-16T14:06:36.987Z,5.20
2019-03-16T14:08:44.830Z,3.52
2019-03-16T14:10:52.478Z,4.97
2019-03-16T14:13:00.220Z,2.58
2019-03-16T14:15:08.902Z,3.25
2019-03-16T14:17:16.867Z,2.75
2019-03-16T14:19:24.429Z,2.83
2019-03-16T14:21:32.140Z,2.33
2019-03-16T14:23:40.237Z,2.95
2019-03-16T14:25:47.906Z,3.40
2019-03-16T14:27:55.742Z,8.90
2019-03-16T14:30:03.914Z,5.22
2019-03-16T14:32:11.797Z,3.27
2019-03-16T14:34:19.786Z,8.35
2019-03-16T14:36:27.752Z,3.87
2019-03-16T14:38:35.385Z,6.12
2019-03-16T14:40:43.126Z,3.08
2019-03-16T14:42:50.996Z,6.90
2019-03-16T14:44:58.845Z,5.67
2019-03-16T14:47:06.405Z,4.20
2019-03-16T14:49:14.060Z,5.45
2019-03-16T14:51:24.667Z,3.40
2019-03-16T14:53:31.063Z,5.30
2019-03-16T14:55:38.834Z,13.95
2019-03-16T14:57:46.608Z,5.42
2019-03-16T14:59:55.537Z,4.65
2019-03-16T15:02:03.235Z,4.42
2019-03-16T15:04:11.053Z,7.20
2019-03-16T15:06:18.796Z,4.58
2019-03-16T15:08:26.568Z,6.90
2019-03-16T15:10:34.217Z,3.98
2019-03-16T15:12:41.956Z,5.53
2019-03-16T15:14:49.553Z,8.03
2019-03-16T15:16:58.272Z,18.27
2019-03-16T15:19:05.883Z,10.95
2019-03-16T15:21:13.662Z,6.95
2019-03-16T15:23:21.363Z,5.47
2019-03-16T15:25:29.183Z,5.42
2019-03-16T15:27:36.881Z,5.55
2019-03-16T15:29:44.687Z,4.85
2019-03-16T15:31:52.330Z,4.72
2019-03-16T15:33:59.915Z,9.55
2019-03-16T15:36:07.488Z,17.50
2019-03-16T15:38:15.169Z,11.40
2019-03-16T15:40:22.871Z,6.10
2019-03-16T15:42:30.444Z,9.88
2019-03-16T15:44:38.347Z,7.92
2019-03-16T15:46:46.064Z,7.80
2019-03-16T15:48:53.708Z,7.45
2019-03-16T15:51:01.440Z,3.90
2019-03-16T15:53:09.287Z,7.53
2019-03-16T15:55:17.005Z,7.90
2019-03-16T15:57:24.754Z,4.22
2019-03-16T15:59:32.423Z,9.35
2019-03-16T16:01:40.791Z,6.08
2019-03-16T16:03:48.550Z,7.58
2019-03-16T16:05:56.287Z,5.25
2019-03-16T16:08:03.957Z,3.15
2019-03-16T16:10:16.596Z,5.85
2019-03-16T16:12:24.264Z,6.67
2019-03-16T16:14:32.065Z,6.00
2019-03-16T16:16:39.640Z,7.58
2019-03-16T16:18:47.360Z,6.35
2019-03-16T16:20:55.056Z,5.83
2019-03-16T16:23:02.621Z,5.45
2019-03-16T16:25:12.826Z,6.17
2019-03-16T16:27:23.976Z,7.83
2019-03-16T16:29:30.645Z,7.42
2019-03-16T16:31:38.324Z,6.10
2019-03-16T16:33:45.897Z,6.95
2019-03-16T16:35:53.464Z,7.17
2019-03-16T16:38:01.366Z,6.37
2019-03-16T16:40:17.234Z,7.95
2019-03-16T16:42:24.872Z,8.63
2019-03-16T16:44:32.710Z,10.38
2019-03-16T16:46:40.276Z,8.93
2019-03-16T16:48:48.088Z,10.15
2019-03-16T16:50:55.846Z,9.08
2019-03-16T16:53:03.456Z,8.85
2019-03-16T16:55:11.572Z,6.62
2019-03-16T16:57:20.237Z,8.75
2019-03-16T16:59:27.864Z,8.70
2019-03-16T17:01:35.518Z,8.68
2019-03-16T17:03:43.213Z,11.78
2019-03-16T17:05:50.859Z,10.93
2019-03-16T17:07:58.535Z,15.88
2019-03-16T17:10:11.187Z,11.00
2019-03-16T17:12:18.931Z,12.10
2019-03-16T17:14:26.655Z,16.27
2019-03-16T17:16:35.375Z,16.42
2019-03-16T17:18:43.206Z,14.38
2019-03-16T17:20:50.986Z,14.43
2019-03-16T17:22:58.691Z,15.45
2019-03-16T17:25:09.677Z,21.90
2019-03-16T17:27:17.425Z,26.60
2019-03-16T17:29:26.088Z,26.40
2019-03-16T17:31:42.319Z,24.20
2019-03-16T17:33:42.951Z,29.75
2019-03-16T17:35:50.722Z,33.67
2019-03-16T17:37:58.462Z,40.52
2019-03-16T17:40:11.340Z,37.95
2019-03-16T17:42:19.021Z,38.98
2019-03-16T17:44:26.692Z,37.38
2019-03-16T17:46:34.447Z,41.18
2019-03-16T17:48:42.156Z,47.43
2019-03-16T17:50:49.739Z,55.40
2019-03-16T17:52:57.372Z,62.20
2019-03-16T17:55:08.373Z,69.77
2019-03-16T17:57:16.019Z,59.30
2019-03-16T17:59:24.084Z,50.35
2019-03-16T18:01:31.780Z,43.87
2019-03-16T18:03:39.596Z,37.73
2019-03-16T18:05:47.339Z,38.08
2019-03-16T18:07:55.155Z,40.73
2019-03-16T18:10:02.898Z,50.35
2019-03-16T18:12:10.579Z,65.45
2019-03-16T18:14:18.550Z,70.72
2019-03-16T18:16:26.175Z,82.47
2019-03-16T18:18:33.915Z,90.50
2019-03-16T18:20:41.627Z,95.45
2019-03-16T18:22:49.404Z,99.37
2019-03-16T18:24:57.083Z,80.45
2019-03-16T18:27:04.939Z,76.07
2019-03-16T18:29:12.743Z,79.40
2019-03-16T18:31:21.096Z,71.25
2019-03-16T18:33:28.875Z,61.53
2019-03-16T18:35:36.529Z,63.15
2019-03-16T18:37:45.395Z,66.22
2019-03-16T18:39:53.106Z,65.83
2019-03-16T18:42:00.690Z,65.45
2019-03-16T18:44:08.282Z,68.62
2019-03-16T18:46:16.000Z,65.40
2019-03-16T18:48:24.664Z,70.97
2019-03-16T18:50:32.296Z,81.42
2019-03-16T18:52:39.909Z,87.67
2019-03-16T18:54:47.693Z,86.53
2019-03-16T18:56:55.298Z,84.70
2019-03-16T18:59:02.785Z,78.52
2019-03-16T19:01:10.564Z,91.20
2019-03-16T19:03:18.279Z,94.42
2019-03-16T19:05:25.944Z,124.10
2019-03-16T19:07:35.361Z,140.28
2019-03-16T19:09:43.057Z,196.20
2019-03-16T19:11:50.653Z,145.68
2019-03-16T19:13:58.376Z,138.88
2019-03-16T19:16:05.972Z,130.60
2019-03-16T19:18:13.561Z,143.68
2019-03-16T19:20:21.309Z,200.30
2019-03-16T19:22:29.032Z,155.70
2019-03-16T19:24:36.699Z,167.10
2019-03-16T19:26:44.631Z,160.93
2019-03-16T19:28:52.221Z,148.97
2019-03-16T19:30:59.913Z,115.37
2019-03-16T19:33:08.363Z,108.07
2019-03-16T19:35:15.981Z,64.03
2019-03-16T19:37:23.522Z,46.28
2019-03-16T19:39:31.145Z,44.83
2019-03-16T19:41:41.517Z,36.15
2019-03-16T19:43:50.356Z,26.87
2019-03-16T19:46:00.393Z,26.15
2019-03-16T19:48:07.892Z,22.37
2019-03-16T19:50:16.918Z,19.80
2019-03-16T19:52:24.720Z,22.30
2019-03-16T19:54:32.396Z,21.80
2019-03-16T19:56:40.066Z,19.25
2019-03-16T19:58:59.793Z,22.00
2019-03-16T20:00:56.981Z,21.95
2019-03-16T20:03:04.765Z,16.90
2019-03-16T20:05:12.911Z,19.37
2019-03-16T20:07:22.970Z,20.23
2019-03-16T20:09:29.896Z,17.27
2019-03-16T20:11:37.637Z,14.45
2019-03-16T20:13:46.576Z,10.45
2019-03-16T20:15:54.227Z,9.10
2019-03-16T20:18:02.369Z,9.18
2019-03-16T20:20:16.034Z,5.53
2019-03-16T20:22:23.822Z,8.80
2019-03-16T20:24:31.623Z,9.90
2019-03-16T20:26:39.313Z,10.40
2019-03-16T20:28:47.073Z,9.15
2019-03-16T20:30:55.845Z,9.98
2019-03-16T20:33:04.509Z,10.23
2019-03-16T20:35:13.142Z,9.80
2019-03-16T20:37:20.653Z,10.75
2019-03-16T20:39:28.423Z,9.95
2019-03-16T20:41:36.719Z,10.55
2019-03-16T20:43:44.538Z,10.88
2019-03-16T20:45:52.166Z,12.00
2019-03-16T20:47:59.917Z,10.85
2019-03-16T20:50:12.531Z,10.95
2019-03-16T20:52:20.349Z,12.40
2019-03-16T20:54:28.034Z,12.82
2019-03-16T20:56:35.745Z,10.55
2019-03-16T20:58:43.496Z,11.85
2019-03-16T21:00:51.154Z,11.05
2019-03-16T21:02:58.887Z,9.43
2019-03-16T21:05:09.673Z,10.88
2019-03-16T21:07:17.243Z,11.90
2019-03-16T21:09:24.927Z,12.25
2019-03-16T21:11:32.575Z,13.80
2019-03-16T21:13:40.218Z,12.05
2019-03-16T21:15:47.953Z,12.93
2019-03-16T21:17:56.004Z,12.15
2019-03-16T21:20:06.295Z,11.12
2019-03-16T21:22:13.902Z,11.38
2019-03-16T21:24:21.682Z,9.48
2019-03-16T21:26:29.247Z,9.40
2019-03-16T21:28:36.844Z,9.35
2019-03-16T21:30:44.416Z,10.28
2019-03-16T21:32:52.137Z,10.82
2019-03-16T21:34:59.955Z,10.30
2019-03-16T21:37:08.685Z,11.80
2019-03-16T21:39:17.117Z,12.37
2019-03-16T21:41:24.975Z,12.45
2019-03-16T21:43:32.775Z,12.65
2019-03-16T21:45:40.461Z,15.78
2019-03-16T21:47:59.582Z,18.27
2019-03-16T21:49:59.217Z,16.05
2019-03-16T21:52:08.090Z,23.87
2019-03-16T21:54:15.872Z,28.60
2019-03-16T21:56:23.449Z,28.07
2019-03-16T21:58:31.198Z,26.33
2019-03-16T22:00:38.843Z,25.15
2019-03-16T22:02:46.454Z,24.47
2019-03-16T22:04:54.154Z,26.73
2019-03-16T22:07:01.847Z,29.00
2019-03-16T22:09:09.674Z,27.50
2019-03-16T22:11:18.585Z,27.02
2019-03-16T22:13:26.320Z,22.67
2019-03-16T22:15:33.994Z,19.17
2019-03-16T22:17:41.572Z,16.73
2019-03-16T22:19:49.246Z,18.60
2019-03-16T22:21:57.025Z,18.42
2019-03-16T22:24:05.048Z,19.70
2019-03-16T22:26:12.655Z,18.98
2019-03-16T22:28:21.528Z,18.02
2019-03-16T22:30:29.204Z,19.90
2019-03-16T22:32:36.896Z,20.60
2019-03-16T22:34:44.472Z,21.80
2019-03-16T22:36:52.050Z,22.20
2019-03-16T22:38:59.824Z,21.82
2019-03-16T22:41:07.473Z,22.82
2019-03-16T22:43:15.678Z,25.30
2019-03-16T22:45:23.570Z,24.65
2019-03-16T22:47:34.065Z,25.25
2019-03-16T22:49:41.745Z,24.37
2019-03-16T22:51:50.523Z,24.00
2019-03-16T22:53:58.102Z,25.48
2019-03-16T22:56:05.819Z,27.48
2019-03-16T22:58:13.422Z,32.28
2019-03-16T23:00:37.280Z,35.17
2019-03-16T23:02:46.440Z,37.55
2019-03-16T23:04:54.036Z,34.45
2019-03-16T23:07:01.707Z,39.35
2019-03-16T23:09:09.451Z,37.35
2019-03-16T23:11:17.294Z,38.83
2019-03-16T23:13:24.948Z,35.05
2019-03-16T23:15:32.580Z,32.38
2019-03-16T23:17:40.252Z,29.60
2019-03-16T23:19:47.822Z,27.25
2019-03-16T23:21:55.399Z,24.55
2019-03-16T23:24:03.297Z,25.25
2019-03-16T23:26:11.042Z,24.65
2019-03-16T23:28:18.687Z,23.83
2019-03-16T23:30:27.848Z,23.90
2019-03-16T23:32:35.673Z,24.47
2019-03-16T23:34:43.481Z,24.57
2019-03-16T23:36:51.189Z,27.07
2019-03-16T23:38:59.064Z,28.65
2019-03-16T23:41:07.069Z,27.65
2019-03-16T23:43:14.745Z,28.07
2019-03-16T23:45:22.392Z,28.57
2019-03-16T23:47:30.146Z,30.43
2019-03-16T23:49:37.801Z,32.67
2019-03-16T23:51:45.552Z,33.55
2019-03-16T23:53:53.295Z,31.95
2019-03-16T23:56:01.011Z,33.20
2019-03-16T23:58:08.644Z,31.30
